Stallings, North Carolina
Current Conditions -  °F | °C
As of 6:53 PM on Thursday 27 Nov 2014 (Local Time) from KEQY Reporting Station
Overcast Overcast  
Wind Chill: 43°   Ceiling: 5500
Heat Index: 45°   Visibility: 10mi
Dew Point: 26°   Wind: 5mph
Humidity: 48%   Direction: 310°NW
Pressure: 30.21"   Gusts: NA
Location:  35.082°N, 80.6782°W
Report Text: KEQY 272353Z AUTO 31004KT 10SM OVC055 07/M03 A3021 RMK AO2 SLP247 T00721033 10117 20072 53031
Loading
Personal Weather Stations






























Interactive Weather Map New forecast layout! Learn more

10-Day Weather Forecast

Advertisements
Track Severe Weather on mobile